createdAt,value
2018-05-14T14:13:40.618Z,29.45
2018-05-14T14:14:40.598Z,28.78
2018-05-14T14:15:40.598Z,27.60
2018-05-14T14:16:40.661Z,26.21
2018-05-14T14:17:40.585Z,25.36
2018-05-14T14:18:40.567Z,25.33
2018-05-14T14:19:40.560Z,25.08
2018-05-14T14:20:40.561Z,25.35
2018-05-14T14:21:40.544Z,25.61
2018-05-14T14:22:40.539Z,26.01
2018-05-14T14:23:40.669Z,26.17
2018-05-14T14:24:40.521Z,27.19
2018-05-14T14:25:40.531Z,27.10
2018-05-14T14:26:40.508Z,28.49
2018-05-14T14:27:40.501Z,29.08
2018-05-14T14:28:40.490Z,29.65
2018-05-14T14:29:40.492Z,30.16
2018-05-14T14:30:40.477Z,30.54
2018-05-14T14:31:40.484Z,30.60
2018-05-14T14:32:40.463Z,30.29
2018-05-14T14:33:40.453Z,30.76
2018-05-14T14:34:40.450Z,31.34
2018-05-14T14:35:40.440Z,31.54
2018-05-14T14:36:40.432Z,31.50
2018-05-14T14:37:40.439Z,31.02
2018-05-14T14:38:40.420Z,31.53
2018-05-14T14:39:40.414Z,31.44
2018-05-14T14:40:40.408Z,32.07
2018-05-14T14:41:40.404Z,32.00
2018-05-14T14:42:40.409Z,32.18
2018-05-14T14:43:40.393Z,30.08
2018-05-14T14:44:40.386Z,29.67
2018-05-14T14:45:40.383Z,28.58
2018-05-14T14:46:40.378Z,28.22
2018-05-14T14:47:40.385Z,27.70
2018-05-14T14:48:40.370Z,27.06
2018-05-14T14:49:40.362Z,26.77
2018-05-14T14:50:40.361Z,26.39
2018-05-14T14:51:40.349Z,26.26
2018-05-14T14:52:40.345Z,26.21
2018-05-14T14:53:40.397Z,26.43
2018-05-14T14:54:40.332Z,26.36
2018-05-14T14:55:40.330Z,26.35
2018-05-14T14:56:40.317Z,26.44
2018-05-14T14:57:40.311Z,26.52
2018-05-14T14:58:40.305Z,26.52
2018-05-14T14:59:40.306Z,26.58
2018-05-14T15:00:40.289Z,26.48
2018-05-14T15:01:40.285Z,26.66
2018-05-14T15:02:40.274Z,26.65
2018-05-14T15:03:40.266Z,26.54
2018-05-14T15:04:40.266Z,26.45
2018-05-14T15:05:40.250Z,26.15
2018-05-14T15:06:40.242Z,26.17
2018-05-14T15:07:40.234Z,26.36
2018-05-14T15:08:40.225Z,26.47
2018-05-14T15:09:40.228Z,26.67
2018-05-14T15:10:40.213Z,26.66
2018-05-14T15:11:40.201Z,26.44
2018-05-14T15:12:40.191Z,26.44
2018-05-14T15:13:40.183Z,26.58
2018-05-14T15:14:40.188Z,26.60
2018-05-14T15:15:40.164Z,26.75
2018-05-14T15:16:40.159Z,26.77
2018-05-14T15:17:40.148Z,26.89
2018-05-14T15:18:40.139Z,26.84
2018-05-14T15:19:40.129Z,26.84
2018-05-14T15:20:40.144Z,27.70
2018-05-14T15:21:40.113Z,29.04
2018-05-14T15:22:40.104Z,29.89
2018-05-14T15:23:40.095Z,31.19
2018-05-14T15:24:40.087Z,31.23
2018-05-14T15:25:40.078Z,29.76
2018-05-14T15:26:40.078Z,31.35
2018-05-14T15:27:40.061Z,32.00
2018-05-14T15:28:40.051Z,33.07
2018-05-14T15:29:40.113Z,33.45
2018-05-14T15:30:40.042Z,33.45
2018-05-14T15:31:40.038Z,33.63
2018-05-14T15:32:40.029Z,33.82
2018-05-14T15:33:40.015Z,34.10
2018-05-14T15:34:40.011Z,33.29
2018-05-14T15:35:40.005Z,33.16
2018-05-14T15:36:40.270Z,32.89
2018-05-14T15:37:39.994Z,33.86
2018-05-14T15:38:39.990Z,33.95
2018-05-14T15:39:39.982Z,33.69
2018-05-14T15:40:39.979Z,32.77
2018-05-14T15:41:39.977Z,31.32
2018-05-14T15:42:39.987Z,31.72
2018-05-14T15:43:39.969Z,31.88
2018-05-14T15:44:39.965Z,32.44
2018-05-14T15:45:39.963Z,32.48
2018-05-14T15:46:39.960Z,32.43
2018-05-14T15:47:39.956Z,33.59
2018-05-14T15:48:39.963Z,33.35
2018-05-14T15:49:39.951Z,32.11
2018-05-14T15:50:39.949Z,31.48
2018-05-14T15:51:39.946Z,32.11
2018-05-14T15:52:39.943Z,32.57
2018-05-14T15:53:39.960Z,32.88
2018-05-14T15:54:39.941Z,33.15
2018-05-14T15:55:39.938Z,33.22
2018-05-14T15:56:39.937Z,32.85
2018-05-14T15:57:39.936Z,33.47
2018-05-14T15:58:39.948Z,31.56
2018-05-14T15:59:39.935Z,29.74
2018-05-14T16:00:39.933Z,29.85
2018-05-14T16:01:39.931Z,28.76
2018-05-14T16:02:39.936Z,28.18
2018-05-14T16:03:39.928Z,27.85
2018-05-14T16:04:39.934Z,27.70
2018-05-14T16:05:39.920Z,28.33
2018-05-14T16:06:39.919Z,29.08
2018-05-14T16:07:39.914Z,29.97
2018-05-14T16:08:39.933Z,31.58
2018-05-14T16:09:39.922Z,31.62
2018-05-14T16:10:39.906Z,32.13
2018-05-14T16:11:39.901Z,32.32
2018-05-14T16:12:39.900Z,32.29
2018-05-14T16:13:39.897Z,30.46
2018-05-14T16:14:39.992Z,29.43
2018-05-14T16:15:39.896Z,28.81
2018-05-14T16:16:39.885Z,28.19
2018-05-14T16:17:39.880Z,28.71
2018-05-14T16:18:39.882Z,29.83
2018-05-14T16:19:39.873Z,30.23
2018-05-14T16:20:39.877Z,30.77
2018-05-14T16:21:39.869Z,30.15
2018-05-14T16:22:39.862Z,31.02
2018-05-14T16:23:39.857Z,30.99
2018-05-14T16:24:39.852Z,31.73
2018-05-14T16:25:39.867Z,31.89
2018-05-14T16:26:39.872Z,31.76
2018-05-14T16:27:39.841Z,32.18
2018-05-14T16:28:39.841Z,32.26
2018-05-14T16:29:39.838Z,33.01
2018-05-14T16:30:39.836Z,32.35
2018-05-14T16:31:39.840Z,32.22
2018-05-14T16:32:39.830Z,31.91
2018-05-14T16:33:39.827Z,31.47
2018-05-14T16:34:39.825Z,30.35
2018-05-14T16:35:39.823Z,29.36
2018-05-14T16:36:39.835Z,28.89
2018-05-14T16:37:39.820Z,28.11
2018-05-14T16:38:39.816Z,27.54
2018-05-14T16:39:39.812Z,27.34
2018-05-14T16:40:39.813Z,26.95
2018-05-14T16:41:39.806Z,26.52
2018-05-14T16:42:39.813Z,26.40
2018-05-14T16:43:39.796Z,26.40
2018-05-14T16:44:39.792Z,26.25
2018-05-14T16:45:39.786Z,26.09
2018-05-14T16:46:39.784Z,26.01
2018-05-14T16:47:39.786Z,25.73
2018-05-14T16:48:39.770Z,25.83
2018-05-14T16:49:39.766Z,25.80
2018-05-14T16:50:39.760Z,25.67
2018-05-14T16:51:39.751Z,25.67
2018-05-14T16:52:39.758Z,25.70
2018-05-14T16:53:39.739Z,25.72
2018-05-14T16:54:39.734Z,25.47
2018-05-14T16:55:39.724Z,25.40
2018-05-14T16:56:39.719Z,25.32
2018-05-14T16:57:39.768Z,25.23
2018-05-14T16:58:39.712Z,25.28
2018-05-14T16:59:39.694Z,25.30
2018-05-14T17:00:39.686Z,25.25
2018-05-14T17:01:39.679Z,25.27
2018-05-14T17:02:39.671Z,25.18
2018-05-14T17:03:39.696Z,25.10
2018-05-14T17:04:39.661Z,25.05
2018-05-14T17:05:39.649Z,24.99
2018-05-14T17:06:39.637Z,24.93
2018-05-14T17:07:39.627Z,24.83
2018-05-14T17:08:39.620Z,24.80
2018-05-14T17:09:39.624Z,24.81
2018-05-14T17:10:39.604Z,24.71
2018-05-14T17:11:39.592Z,24.64
2018-05-14T17:12:39.585Z,24.65
2018-05-14T17:13:39.576Z,24.76
2018-05-14T17:14:39.578Z,24.81
2018-05-14T17:15:39.555Z,25.87
2018-05-14T17:16:39.550Z,27.14
2018-05-14T17:17:39.550Z,28.00
2018-05-14T17:18:39.529Z,28.66
2018-05-14T17:19:39.536Z,28.66
2018-05-14T17:20:39.512Z,28.56
2018-05-14T17:21:39.503Z,29.18
2018-05-14T17:22:39.496Z,29.41
2018-05-14T17:23:39.498Z,30.00
2018-05-14T17:24:39.480Z,28.56
2018-05-14T17:25:39.482Z,28.81
2018-05-14T17:26:39.472Z,28.83
2018-05-14T17:27:39.455Z,29.26
2018-05-14T17:28:39.451Z,28.86
2018-05-14T17:29:39.442Z,29.06
2018-05-14T17:30:39.451Z,29.64
2018-05-14T17:31:39.430Z,29.00
2018-05-14T17:32:39.422Z,27.59
2018-05-14T17:33:39.415Z,28.30
2018-05-14T17:34:39.410Z,28.74
2018-05-14T17:35:39.402Z,28.70
2018-05-14T17:36:39.405Z,29.14
2018-05-14T17:37:39.391Z,29.04
2018-05-14T17:38:39.385Z,29.49
2018-05-14T17:39:39.378Z,29.51
2018-05-14T17:40:39.371Z,29.49
2018-05-14T17:41:39.379Z,29.37
2018-05-14T17:42:39.361Z,29.33
2018-05-14T17:43:39.356Z,29.52
2018-05-14T17:44:39.353Z,29.21
2018-05-14T17:45:39.350Z,29.11
2018-05-14T17:46:39.356Z,28.98
2018-05-14T17:47:39.335Z,28.30
2018-05-14T17:48:39.330Z,27.66
2018-05-14T17:49:39.322Z,27.41
2018-05-14T17:50:39.318Z,26.84
2018-05-14T17:51:39.312Z,26.66
2018-05-14T17:52:39.316Z,26.76
2018-05-14T17:53:39.300Z,26.81
2018-05-14T17:54:39.300Z,26.69
2018-05-14T17:55:39.287Z,26.54
2018-05-14T17:56:39.281Z,26.60
2018-05-14T17:57:39.287Z,26.45
2018-05-14T17:58:39.272Z,26.02
2018-05-14T17:59:39.259Z,26.09
2018-05-14T18:00:39.254Z,25.90
2018-05-14T18:01:39.245Z,25.95
2018-05-14T18:02:39.238Z,25.98
2018-05-14T18:03:39.245Z,25.67
2018-05-14T18:04:39.222Z,25.47
2018-05-14T18:05:39.215Z,25.46
2018-05-14T18:06:39.206Z,25.47
2018-05-14T18:07:39.198Z,25.27
2018-05-14T18:08:39.191Z,25.13
2018-05-14T18:09:39.477Z,25.05
2018-05-14T18:10:39.293Z,25.09
2018-05-14T18:11:39.165Z,25.03
2018-05-14T18:12:39.159Z,24.91
2018-05-14T18:13:39.150Z,24.99
2018-05-14T18:14:39.139Z,24.91
2018-05-14T18:15:39.141Z,24.81
2018-05-14T18:16:39.127Z,24.83
2018-05-14T18:17:39.181Z,24.68
2018-05-14T18:18:39.105Z,24.71
2018-05-14T18:19:39.093Z,24.73
2018-05-14T18:20:39.096Z,24.68
2018-05-14T18:21:39.078Z,24.55
2018-05-14T18:22:39.148Z,24.34
2018-05-14T18:23:39.061Z,24.25
2018-05-14T18:24:39.049Z,24.24
2018-05-14T18:25:39.047Z,24.16
2018-05-14T18:26:39.031Z,24.02
2018-05-14T18:27:39.019Z,23.88
2018-05-14T18:28:39.011Z,23.85
2018-05-14T18:29:38.999Z,23.84
2018-05-14T18:30:38.998Z,23.68
2018-05-14T18:31:38.980Z,23.72
2018-05-14T18:32:38.969Z,23.55
2018-05-14T18:33:38.960Z,23.61
2018-05-14T18:34:38.949Z,23.78
2018-05-14T18:35:38.947Z,23.73
2018-05-14T18:36:38.930Z,23.69
2018-05-14T18:37:38.918Z,23.70
2018-05-14T18:38:38.913Z,23.57
2018-05-14T18:39:38.899Z,23.65
2018-05-14T18:40:38.899Z,23.50
2018-05-14T18:41:38.876Z,23.53
2018-05-14T18:42:38.865Z,23.58
2018-05-14T18:43:38.851Z,23.58
2018-05-14T18:44:38.842Z,23.48
2018-05-14T18:45:38.832Z,23.51
2018-05-14T18:46:38.869Z,23.31
2018-05-14T18:47:38.813Z,23.31
2018-05-14T18:48:38.798Z,23.16
2018-05-14T18:49:38.789Z,23.13
2018-05-14T18:50:38.776Z,23.22
2018-05-14T18:51:38.780Z,23.27
2018-05-14T18:52:38.754Z,23.27
2018-05-14T18:53:38.743Z,23.31
2018-05-14T18:54:38.733Z,23.35
2018-05-14T18:55:38.721Z,23.32
2018-05-14T18:56:38.709Z,23.28
2018-05-14T18:57:38.713Z,23.25
2018-05-14T18:58:38.689Z,23.05
2018-05-14T18:59:38.674Z,23.09
2018-05-14T19:00:38.663Z,23.01
2018-05-14T19:01:38.653Z,22.90
2018-05-14T19:02:38.650Z,22.80
2018-05-14T19:03:38.628Z,22.83
2018-05-14T19:04:38.616Z,22.68
2018-05-14T19:05:38.606Z,22.76
2018-05-14T19:06:38.593Z,22.55
2018-05-14T19:07:38.595Z,22.64
2018-05-14T19:08:38.584Z,22.60
2018-05-14T19:09:38.561Z,22.67
2018-05-14T19:10:38.547Z,22.58
2018-05-14T19:11:38.534Z,22.57
2018-05-14T19:12:38.523Z,22.62
2018-05-14T19:13:38.521Z,22.57
2018-05-14T19:14:38.500Z,22.51
2018-05-14T19:15:38.486Z,22.40
2018-05-14T19:16:38.475Z,22.28
2018-05-14T19:17:38.462Z,22.22
2018-05-14T19:18:38.546Z,22.09
2018-05-14T19:19:38.437Z,22.00
2018-05-14T19:20:38.428Z,21.90
2018-05-14T19:21:38.414Z,21.91
2018-05-14T19:22:38.402Z,21.88
2018-05-14T19:23:38.403Z,21.75
2018-05-14T19:24:38.377Z,21.72
2018-05-14T19:25:38.367Z,21.69
2018-05-14T19:26:38.354Z,21.67
2018-05-14T19:27:38.340Z,21.67
2018-05-14T19:28:38.340Z,21.68
2018-05-14T19:29:38.318Z,21.68
2018-05-14T19:30:38.304Z,21.71
2018-05-14T19:31:38.291Z,21.62
2018-05-14T19:32:38.280Z,21.61
2018-05-14T19:33:38.284Z,21.53
2018-05-14T19:34:38.255Z,21.54
